sensor_id;sensor_type;location;lat;lon;timestamp;temperature;humidity
8313;DHT22;4194;43.408;24.626;2022-11-18T00:02:13;9.10;99.90
8313;DHT22;4194;43.408;24.626;2022-11-18T00:04:39;10.00;99.90
8313;DHT22;4194;43.408;24.626;2022-11-18T00:07:05;8.90;99.90
8313;DHT22;4194;43.408;24.626;2022-11-18T00:09:30;9.30;99.90
8313;DHT22;4194;43.408;24.626;2022-11-18T00:11:56;8.50;99.90
8313;DHT22;4194;43.408;24.626;2022-11-18T00:14:40;8.60;99.90
8313;DHT22;4194;43.408;24.626;2022-11-18T00:17:06;8.50;99.90
8313;DHT22;4194;43.408;24.626;2022-11-18T00:19:34;8.70;99.90
8313;DHT22;4194;43.408;24.626;2022-11-18T00:22:01;8.40;99.90
8313;DHT22;4194;43.408;24.626;2022-11-18T00:24:26;8.80;99.90
8313;DHT22;4194;43.408;24.626;2022-11-18T00:26:53;9.60;99.90
8313;DHT22;4194;43.408;24.626;2022-11-18T00:29:19;8.60;99.90
8313;DHT22;4194;43.408;24.626;2022-11-18T00:31:45;8.80;99.90
8313;DHT22;4194;43.408;24.626;2022-11-18T00:34:13;8.50;99.90
8313;DHT22;4194;43.408;24.626;2022-11-18T00:36:40;8.30;99.90
8313;DHT22;4194;43.408;24.626;2022-11-18T00:39:06;8.50;99.90
8313;DHT22;4194;43.408;24.626;2022-11-18T00:41:32;8.50;99.90
8313;DHT22;4194;43.408;24.626;2022-11-18T00:44:16;8.70;99.90
8313;DHT22;4194;43.408;24.626;2022-11-18T00:46:42;9.10;99.90
8313;DHT22;4194;43.408;24.626;2022-11-18T00:49:08;8.60;99.90
8313;DHT22;4194;43.408;24.626;2022-11-18T00:51:34;9.20;99.90
8313;DHT22;4194;43.408;24.626;2022-11-18T00:54:04;9.10;99.90
8313;DHT22;4194;43.408;24.626;2022-11-18T00:56:29;8.90;99.90
8313;DHT22;4194;43.408;24.626;2022-11-18T00:58:55;8.40;99.90
8313;DHT22;4194;43.408;24.626;2022-11-18T01:01:21;8.80;99.90
8313;DHT22;4194;43.408;24.626;2022-11-18T01:06:12;9.00;99.90
8313;DHT22;4194;43.408;24.626;2022-11-18T01:08:38;7.70;99.90
8313;DHT22;4194;43.408;24.626;2022-11-18T01:11:04;8.50;99.90
8313;DHT22;4194;43.408;24.626;2022-11-18T01:13:50;8.50;99.90
8313;DHT22;4194;43.408;24.626;2022-11-18T01:16:20;8.50;99.90
8313;DHT22;4194;43.408;24.626;2022-11-18T01:18:46;8.90;99.90
8313;DHT22;4194;43.408;24.626;2022-11-18T01:21:12;8.20;99.90
8313;DHT22;4194;43.408;24.626;2022-11-18T01:23:38;7.70;99.90
8313;DHT22;4194;43.408;24.626;2022-11-18T01:26:08;8.00;99.90
8313;DHT22;4194;43.408;24.626;2022-11-18T01:28:34;8.10;99.90
8313;DHT22;4194;43.408;24.626;2022-11-18T01:31:08;8.20;99.90
8313;DHT22;4194;43.408;24.626;2022-11-18T01:33:34;7.40;99.90
8313;DHT22;4194;43.408;24.626;2022-11-18T01:36:00;8.60;99.90
8313;DHT22;4194;43.408;24.626;2022-11-18T01:38:26;8.20;99.90
8313;DHT22;4194;43.408;24.626;2022-11-18T01:40:53;8.90;99.90
8313;DHT22;4194;43.408;24.626;2022-11-18T01:43:20;8.70;99.90
8313;DHT22;4194;43.408;24.626;2022-11-18T01:45:48;8.20;99.90
8313;DHT22;4194;43.408;24.626;2022-11-18T01:48:25;7.90;99.90
8313;DHT22;4194;43.408;24.626;2022-11-18T01:51:03;8.90;99.90
8313;DHT22;4194;43.408;24.626;2022-11-18T01:53:36;7.90;99.90
8313;DHT22;4194;43.408;24.626;2022-11-18T01:56:07;8.50;99.90
8313;DHT22;4194;43.408;24.626;2022-11-18T02:01:10;7.40;99.90
8313;DHT22;4194;43.408;24.626;2022-11-18T02:03:36;7.70;99.90
8313;DHT22;4194;43.408;24.626;2022-11-18T02:06:04;9.10;99.90
8313;DHT22;4194;43.408;24.626;2022-11-18T02:08:31;7.20;99.90
8313;DHT22;4194;43.408;24.626;2022-11-18T02:10:58;7.70;99.90
8313;DHT22;4194;43.408;24.626;2022-11-18T02:13:24;7.10;99.90
8313;DHT22;4194;43.408;24.626;2022-11-18T02:16:18;7.70;99.90
8313;DHT22;4194;43.408;24.626;2022-11-18T02:18:53;7.60;99.90
8313;DHT22;4194;43.408;24.626;2022-11-18T02:21:45;7.60;99.90
8313;DHT22;4194;43.408;24.626;2022-11-18T02:29:41;7.40;99.90
8313;DHT22;4194;43.408;24.626;2022-11-18T02:32:17;6.90;99.90
8313;DHT22;4194;43.408;24.626;2022-11-18T02:35:00;7.40;99.90
8313;DHT22;4194;43.408;24.626;2022-11-18T02:42:31;7.30;99.90
8313;DHT22;4194;43.408;24.626;2022-11-18T02:45:04;7.20;99.90
8313;DHT22;4194;43.408;24.626;2022-11-18T02:47:31;6.70;99.90
8313;DHT22;4194;43.408;24.626;2022-11-18T02:50:07;7.20;99.90
8313;DHT22;4194;43.408;24.626;2022-11-18T02:52:36;6.20;99.90
8313;DHT22;4194;43.408;24.626;2022-11-18T02:55:06;7.30;99.90
8313;DHT22;4194;43.408;24.626;2022-11-18T02:57:34;7.30;99.90
8313;DHT22;4194;43.408;24.626;2022-11-18T03:00:00;7.30;99.90
8313;DHT22;4194;43.408;24.626;2022-11-18T03:02:26;5.90;99.90
8313;DHT22;4194;43.408;24.626;2022-11-18T03:04:54;7.20;99.90
8313;DHT22;4194;43.408;24.626;2022-11-18T03:07:28;8.60;99.90
8313;DHT22;4194;43.408;24.626;2022-11-18T03:09:55;8.00;99.90
8313;DHT22;4194;43.408;24.626;2022-11-18T03:12:51;7.20;99.90
8313;DHT22;4194;43.408;24.626;2022-11-18T03:15:47;7.20;99.90
8313;DHT22;4194;43.408;24.626;2022-11-18T03:18:21;7.30;99.90
8313;DHT22;4194;43.408;24.626;2022-11-18T03:20:53;6.70;99.90
8313;DHT22;4194;43.408;24.626;2022-11-18T03:23:37;7.10;99.90
8313;DHT22;4194;43.408;24.626;2022-11-18T03:26:12;6.70;99.90
8313;DHT22;4194;43.408;24.626;2022-11-18T03:31:52;7.10;99.90
8313;DHT22;4194;43.408;24.626;2022-11-18T03:34:35;8.40;99.90
8313;DHT22;4194;43.408;24.626;2022-11-18T03:37:05;6.90;99.90
8313;DHT22;4194;43.408;24.626;2022-11-18T03:39:35;6.50;99.90
8313;DHT22;4194;43.408;24.626;2022-11-18T03:42:08;8.30;99.90
8313;DHT22;4194;43.408;24.626;2022-11-18T03:44:37;8.10;99.90
8313;DHT22;4194;43.408;24.626;2022-11-18T03:47:08;7.00;99.90
8313;DHT22;4194;43.408;24.626;2022-11-18T03:49:42;7.00;99.90
8313;DHT22;4194;43.408;24.626;2022-11-18T03:52:23;7.00;99.90
8313;DHT22;4194;43.408;24.626;2022-11-18T03:54:52;7.10;99.90
8313;DHT22;4194;43.408;24.626;2022-11-18T03:57:24;7.10;99.90
8313;DHT22;4194;43.408;24.626;2022-11-18T03:59:58;7.00;99.90
8313;DHT22;4194;43.408;24.626;2022-11-18T04:02:28;7.00;99.90
8313;DHT22;4194;43.408;24.626;2022-11-18T04:04:56;6.90;99.90
8313;DHT22;4194;43.408;24.626;2022-11-18T04:10:20;8.00;99.90
8313;DHT22;4194;43.408;24.626;2022-11-18T04:12:52;7.60;99.90
8313;DHT22;4194;43.408;24.626;2022-11-18T04:15:19;6.70;99.90
8313;DHT22;4194;43.408;24.626;2022-11-18T04:17:44;6.80;99.90
8313;DHT22;4194;43.408;24.626;2022-11-18T04:20:19;6.90;99.90
8313;DHT22;4194;43.408;24.626;2022-11-18T04:22:45;6.90;99.90
8313;DHT22;4194;43.408;24.626;2022-11-18T04:25:11;6.80;99.90
8313;DHT22;4194;43.408;24.626;2022-11-18T04:27:37;7.40;99.90
8313;DHT22;4194;43.408;24.626;2022-11-18T04:30:04;7.00;99.90
8313;DHT22;4194;43.408;24.626;2022-11-18T04:32:29;6.90;99.90
8313;DHT22;4194;43.408;24.626;2022-11-18T04:58:28;6.40;99.90
8313;DHT22;4194;43.408;24.626;2022-11-18T05:03:19;6.90;99.90
8313;DHT22;4194;43.408;24.626;2022-11-18T05:05:45;7.70;99.90
8313;DHT22;4194;43.408;24.626;2022-11-18T05:08:10;6.70;99.90
8313;DHT22;4194;43.408;24.626;2022-11-18T05:10:37;6.80;99.90
8313;DHT22;4194;43.408;24.626;2022-11-18T05:13:03;6.90;99.90
8313;DHT22;4194;43.408;24.626;2022-11-18T05:15:28;7.00;99.90
8313;DHT22;4194;43.408;24.626;2022-11-18T05:17:54;6.50;99.90
8313;DHT22;4194;43.408;24.626;2022-11-18T05:20:20;6.60;99.90
8313;DHT22;4194;43.408;24.626;2022-11-18T05:22:46;6.10;99.90
8313;DHT22;4194;43.408;24.626;2022-11-18T05:25:11;6.80;99.90
8313;DHT22;4194;43.408;24.626;2022-11-18T05:27:37;6.60;99.90
8313;DHT22;4194;43.408;24.626;2022-11-18T05:30:03;8.30;99.90
8313;DHT22;4194;43.408;24.626;2022-11-18T05:32:29;6.60;99.90
8313;DHT22;4194;43.408;24.626;2022-11-18T05:34:55;6.60;99.90
8313;DHT22;4194;43.408;24.626;2022-11-18T05:37:20;5.10;99.90
8313;DHT22;4194;43.408;24.626;2022-11-18T05:39:46;7.60;99.90
8313;DHT22;4194;43.408;24.626;2022-11-18T05:42:11;7.00;99.90
8313;DHT22;4194;43.408;24.626;2022-11-18T05:44:56;6.70;99.90
8313;DHT22;4194;43.408;24.626;2022-11-18T05:47:21;7.80;99.90
8313;DHT22;4194;43.408;24.626;2022-11-18T05:49:49;8.30;99.90
8313;DHT22;4194;43.408;24.626;2022-11-18T05:52:15;6.50;99.90
8313;DHT22;4194;43.408;24.626;2022-11-18T05:54:47;7.00;99.90
8313;DHT22;4194;43.408;24.626;2022-11-18T05:57:14;7.20;99.90
8313;DHT22;4194;43.408;24.626;2022-11-18T05:59:40;6.80;99.90
8313;DHT22;4194;43.408;24.626;2022-11-18T06:02:13;7.70;99.90
8313;DHT22;4194;43.408;24.626;2022-11-18T06:07:40;6.90;99.90
8313;DHT22;4194;43.408;24.626;2022-11-18T06:10:10;7.80;99.90
8313;DHT22;4194;43.408;24.626;2022-11-18T06:12:41;7.00;99.90
8313;DHT22;4194;43.408;24.626;2022-11-18T06:20:18;7.10;99.90
8313;DHT22;4194;43.408;24.626;2022-11-18T06:22:45;8.20;99.90
8313;DHT22;4194;43.408;24.626;2022-11-18T06:25:11;7.20;99.90
8313;DHT22;4194;43.408;24.626;2022-11-18T06:27:37;7.40;99.90
8313;DHT22;4194;43.408;24.626;2022-11-18T06:30:03;7.80;99.90
8313;DHT22;4194;43.408;24.626;2022-11-18T06:32:29;8.90;99.90
8313;DHT22;4194;43.408;24.626;2022-11-18T06:34:54;8.70;99.90
8313;DHT22;4194;43.408;24.626;2022-11-18T06:37:20;6.80;99.90
8313;DHT22;4194;43.408;24.626;2022-11-18T06:39:46;7.70;99.90
8313;DHT22;4194;43.408;24.626;2022-11-18T06:42:12;7.80;99.90
8313;DHT22;4194;43.408;24.626;2022-11-18T06:44:57;7.70;99.90
8313;DHT22;4194;43.408;24.626;2022-11-18T06:47:23;8.80;99.90
8313;DHT22;4194;43.408;24.626;2022-11-18T06:49:49;8.30;99.90
8313;DHT22;4194;43.408;24.626;2022-11-18T06:52:14;9.20;99.90
8313;DHT22;4194;43.408;24.626;2022-11-18T06:54:40;9.00;99.90
8313;DHT22;4194;43.408;24.626;2022-11-18T06:57:05;8.30;99.90
8313;DHT22;4194;43.408;24.626;2022-11-18T06:59:31;8.40;99.90
8313;DHT22;4194;43.408;24.626;2022-11-18T07:01:57;7.90;99.90
8313;DHT22;4194;43.408;24.626;2022-11-18T07:04:22;8.90;99.90
8313;DHT22;4194;43.408;24.626;2022-11-18T07:06:48;8.90;99.90
8313;DHT22;4194;43.408;24.626;2022-11-18T07:09:14;8.40;99.90
8313;DHT22;4194;43.408;24.626;2022-11-18T07:11:40;9.20;99.90
8313;DHT22;4194;43.408;24.626;2022-11-18T07:14:09;9.10;99.90
8313;DHT22;4194;43.408;24.626;2022-11-18T07:16:36;10.40;99.90
8313;DHT22;4194;43.408;24.626;2022-11-18T07:19:08;9.50;99.90
8313;DHT22;4194;43.408;24.626;2022-11-18T07:21:35;8.70;99.90
8313;DHT22;4194;43.408;24.626;2022-11-18T07:24:05;10.30;99.90
8313;DHT22;4194;43.408;24.626;2022-11-18T07:26:32;9.50;99.90
8313;DHT22;4194;43.408;24.626;2022-11-18T07:28:57;9.50;99.90
8313;DHT22;4194;43.408;24.626;2022-11-18T07:31:23;10.00;99.90
8313;DHT22;4194;43.408;24.626;2022-11-18T07:33:49;9.60;99.90
8313;DHT22;4194;43.408;24.626;2022-11-18T07:36:27;9.90;99.90
8313;DHT22;4194;43.408;24.626;2022-11-18T07:38:53;10.10;99.90
8313;DHT22;4194;43.408;24.626;2022-11-18T07:41:25;9.20;99.90
8313;DHT22;4194;43.408;24.626;2022-11-18T07:43:52;10.20;99.90
8313;DHT22;4194;43.408;24.626;2022-11-18T07:46:22;10.70;99.90
8313;DHT22;4194;43.408;24.626;2022-11-18T07:48:50;9.70;99.90
8313;DHT22;4194;43.408;24.626;2022-11-18T07:51:18;10.00;99.90
8313;DHT22;4194;43.408;24.626;2022-11-18T07:56:10;9.60;99.90
8313;DHT22;4194;43.408;24.626;2022-11-18T07:58:37;9.60;99.90
8313;DHT22;4194;43.408;24.626;2022-11-18T08:01:25;10.50;99.90
8313;DHT22;4194;43.408;24.626;2022-11-18T08:03:56;10.60;99.90
8313;DHT22;4194;43.408;24.626;2022-11-18T08:06:22;11.90;99.90
8313;DHT22;4194;43.408;24.626;2022-11-18T08:08:48;11.00;99.90
8313;DHT22;4194;43.408;24.626;2022-11-18T08:11:16;10.10;99.90
8313;DHT22;4194;43.408;24.626;2022-11-18T08:13:42;11.60;99.90
8313;DHT22;4194;43.408;24.626;2022-11-18T08:16:16;12.10;99.90
8313;DHT22;4194;43.408;24.626;2022-11-18T08:18:42;11.30;99.90
8313;DHT22;4194;43.408;24.626;2022-11-18T08:21:08;11.60;99.90
8313;DHT22;4194;43.408;24.626;2022-11-18T08:23:34;11.60;99.90
8313;DHT22;4194;43.408;24.626;2022-11-18T08:26:23;12.10;99.90
8313;DHT22;4194;43.408;24.626;2022-11-18T08:28:49;13.20;99.90
8313;DHT22;4194;43.408;24.626;2022-11-18T08:31:18;13.10;99.90
8313;DHT22;4194;43.408;24.626;2022-11-18T08:33:45;12.60;99.90
8313;DHT22;4194;43.408;24.626;2022-11-18T08:36:20;11.20;99.90
8313;DHT22;4194;43.408;24.626;2022-11-18T08:38:47;13.40;99.90
8313;DHT22;4194;43.408;24.626;2022-11-18T08:41:14;12.00;99.90
8313;DHT22;4194;43.408;24.626;2022-11-18T08:43:41;12.90;99.90
8313;DHT22;4194;43.408;24.626;2022-11-18T08:46:07;14.00;99.90
8313;DHT22;4194;43.408;24.626;2022-11-18T08:48:32;13.00;99.90
8313;DHT22;4194;43.408;24.626;2022-11-18T08:50:58;13.20;99.90
8313;DHT22;4194;43.408;24.626;2022-11-18T08:53:24;14.20;99.90
8313;DHT22;4194;43.408;24.626;2022-11-18T08:55:54;12.90;99.90
8313;DHT22;4194;43.408;24.626;2022-11-18T08:58:21;13.70;99.90
8313;DHT22;4194;43.408;24.626;2022-11-18T09:00:47;13.90;99.90
8313;DHT22;4194;43.408;24.626;2022-11-18T09:03:12;14.10;99.90
8313;DHT22;4194;43.408;24.626;2022-11-18T09:05:38;14.00;99.90
8313;DHT22;4194;43.408;24.626;2022-11-18T09:08:04;14.50;99.90
8313;DHT22;4194;43.408;24.626;2022-11-18T09:10:29;15.50;99.90
8313;DHT22;4194;43.408;24.626;2022-11-18T09:12:55;15.60;99.90
8313;DHT22;4194;43.408;24.626;2022-11-18T09:15:21;15.10;99.90
8313;DHT22;4194;43.408;24.626;2022-11-18T09:17:48;15.70;99.90
8313;DHT22;4194;43.408;24.626;2022-11-18T09:20:16;16.90;99.90
8313;DHT22;4194;43.408;24.626;2022-11-18T09:22:41;16.10;99.90
8313;DHT22;4194;43.408;24.626;2022-11-18T09:25:07;16.10;99.90
8313;DHT22;4194;43.408;24.626;2022-11-18T09:27:33;16.70;99.90
8313;DHT22;4194;43.408;24.626;2022-11-18T09:29:59;17.60;99.90
8313;DHT22;4194;43.408;24.626;2022-11-18T09:32:24;15.90;98.20
8313;DHT22;4194;43.408;24.626;2022-11-18T09:34:50;17.30;99.10
8313;DHT22;4194;43.408;24.626;2022-11-18T09:37:16;17.50;95.60
8313;DHT22;4194;43.408;24.626;2022-11-18T09:39:41;18.30;96.10
8313;DHT22;4194;43.408;24.626;2022-11-18T09:47:32;20.50;88.50
8313;DHT22;4194;43.408;24.626;2022-11-18T09:50:01;21.10;85.00
8313;DHT22;4194;43.408;24.626;2022-11-18T09:55:27;22.50;79.80
8313;DHT22;4194;43.408;24.626;2022-11-18T09:57:55;22.10;74.60
8313;DHT22;4194;43.408;24.626;2022-11-18T10:00:22;23.80;74.00
8313;DHT22;4194;43.408;24.626;2022-11-18T10:05:26;23.40;71.00
8313;DHT22;4194;43.408;24.626;2022-11-18T10:13:36;23.60;67.20
8313;DHT22;4194;43.408;24.626;2022-11-18T10:16:18;24.00;67.00
8313;DHT22;4194;43.408;24.626;2022-11-18T10:22:19;22.30;66.60
8313;DHT22;4194;43.408;24.626;2022-11-18T10:24:57;22.00;65.70
8313;DHT22;4194;43.408;24.626;2022-11-18T10:27:33;23.70;68.00
8313;DHT22;4194;43.408;24.626;2022-11-18T10:30:00;23.50;67.60
8313;DHT22;4194;43.408;24.626;2022-11-18T10:32:27;22.80;66.20
8313;DHT22;4194;43.408;24.626;2022-11-18T10:34:57;22.80;64.70
8313;DHT22;4194;43.408;24.626;2022-11-18T10:37:34;22.90;65.70
8313;DHT22;4194;43.408;24.626;2022-11-18T10:40:04;23.40;65.60
8313;DHT22;4194;43.408;24.626;2022-11-18T10:42:44;23.60;67.80
8313;DHT22;4194;43.408;24.626;2022-11-18T10:50:33;21.60;62.80
8313;DHT22;4194;43.408;24.626;2022-11-18T10:52:59;22.00;63.40
8313;DHT22;4194;43.408;24.626;2022-11-18T10:55:26;21.60;62.80
8313;DHT22;4194;43.408;24.626;2022-11-18T10:57:55;21.20;63.30
8313;DHT22;4194;43.408;24.626;2022-11-18T11:03:24;22.90;61.70
8313;DHT22;4194;43.408;24.626;2022-11-18T11:08:53;26.00;56.80
8313;DHT22;4194;43.408;24.626;2022-11-18T11:11:38;26.80;56.40
8313;DHT22;4194;43.408;24.626;2022-11-18T11:14:14;26.80;55.30
8313;DHT22;4194;43.408;24.626;2022-11-18T11:17:09;26.20;53.20
8313;DHT22;4194;43.408;24.626;2022-11-18T11:19:54;26.90;54.20
8313;DHT22;4194;43.408;24.626;2022-11-18T11:22:23;26.40;52.30
8313;DHT22;4194;43.408;24.626;2022-11-18T11:24:48;26.40;52.50
8313;DHT22;4194;43.408;24.626;2022-11-18T11:27:22;27.30;55.10
8313;DHT22;4194;43.408;24.626;2022-11-18T11:30:03;27.30;51.80
8313;DHT22;4194;43.408;24.626;2022-11-18T11:35:17;27.70;50.10
8313;DHT22;4194;43.408;24.626;2022-11-18T11:41:04;26.00;49.80
8313;DHT22;4194;43.408;24.626;2022-11-18T11:57:04;27.50;51.30
8313;DHT22;4194;43.408;24.626;2022-11-18T12:02:32;26.60;50.40
8313;DHT22;4194;43.408;24.626;2022-11-18T12:07:57;28.70;50.90
8313;DHT22;4194;43.408;24.626;2022-11-18T12:21:04;39.90;33.20
8313;DHT22;4194;43.408;24.626;2022-11-18T12:23:31;41.50;35.60
8313;DHT22;4194;43.408;24.626;2022-11-18T12:36:33;28.70;48.10
8313;DHT22;4194;43.408;24.626;2022-11-18T12:41:55;26.00;53.20
8313;DHT22;4194;43.408;24.626;2022-11-18T12:44:41;25.40;53.50
8313;DHT22;4194;43.408;24.626;2022-11-18T12:47:09;24.90;54.60
8313;DHT22;4194;43.408;24.626;2022-11-18T12:52:02;25.00;59.90
8313;DHT22;4194;43.408;24.626;2022-11-18T12:54:43;22.80;61.40
8313;DHT22;4194;43.408;24.626;2022-11-18T12:57:18;24.30;65.10
8313;DHT22;4194;43.408;24.626;2022-11-18T12:59:44;23.30;64.80
8313;DHT22;4194;43.408;24.626;2022-11-18T13:04:35;23.00;66.50
8313;DHT22;4194;43.408;24.626;2022-11-18T13:07:02;22.90;67.50
8313;DHT22;4194;43.408;24.626;2022-11-18T13:09:32;23.40;68.60
8313;DHT22;4194;43.408;24.626;2022-11-18T13:12:04;23.00;69.30
8313;DHT22;4194;43.408;24.626;2022-11-18T13:14:40;22.60;68.90
8313;DHT22;4194;43.408;24.626;2022-11-18T13:17:34;22.20;69.40
8313;DHT22;4194;43.408;24.626;2022-11-18T13:20:27;21.70;70.40
8313;DHT22;4194;43.408;24.626;2022-11-18T13:25:52;22.20;72.60
8313;DHT22;4194;43.408;24.626;2022-11-18T13:34:29;20.90;74.30
8313;DHT22;4194;43.408;24.626;2022-11-18T13:36:55;21.50;75.60
8313;DHT22;4194;43.408;24.626;2022-11-18T13:39:22;20.60;76.00
8313;DHT22;4194;43.408;24.626;2022-11-18T13:42:05;20.40;77.00
8313;DHT22;4194;43.408;24.626;2022-11-18T13:44:34;18.90;76.00
8313;DHT22;4194;43.408;24.626;2022-11-18T13:50:11;20.10;80.20
8313;DHT22;4194;43.408;24.626;2022-11-18T14:00:59;19.00;82.90
8313;DHT22;4194;43.408;24.626;2022-11-18T14:03:30;18.70;82.40
8313;DHT22;4194;43.408;24.626;2022-11-18T14:05:57;18.70;81.80
8313;DHT22;4194;43.408;24.626;2022-11-18T14:08:34;19.70;82.70
8313;DHT22;4194;43.408;24.626;2022-11-18T14:11:01;18.60;81.40
8313;DHT22;4194;43.408;24.626;2022-11-18T14:13:30;18.90;81.80
8313;DHT22;4194;43.408;24.626;2022-11-18T14:16:01;18.70;81.10
8313;DHT22;4194;43.408;24.626;2022-11-18T14:18:30;19.30;81.40
8313;DHT22;4194;43.408;24.626;2022-11-18T14:20:57;19.20;81.40
8313;DHT22;4194;43.408;24.626;2022-11-18T14:23:31;18.30;81.10
8313;DHT22;4194;43.408;24.626;2022-11-18T14:26:00;19.30;83.10
8313;DHT22;4194;43.408;24.626;2022-11-18T14:28:31;18.20;82.70
8313;DHT22;4194;43.408;24.626;2022-11-18T14:36:44;18.80;86.50
8313;DHT22;4194;43.408;24.626;2022-11-18T14:39:23;16.80;85.70
8313;DHT22;4194;43.408;24.626;2022-11-18T14:41:50;17.00;86.90
8313;DHT22;4194;43.408;24.626;2022-11-18T14:44:17;17.10;87.40
8313;DHT22;4194;43.408;24.626;2022-11-18T14:47:11;17.50;88.70
8313;DHT22;4194;43.408;24.626;2022-11-18T14:49:31;16.80;89.20
8313;DHT22;4194;43.408;24.626;2022-11-18T14:51:57;16.70;90.30
8313;DHT22;4194;43.408;24.626;2022-11-18T14:54:24;16.70;90.80
8313;DHT22;4194;43.408;24.626;2022-11-18T14:56:52;17.70;91.90
8313;DHT22;4194;43.408;24.626;2022-11-18T14:59:19;16.50;92.10
8313;DHT22;4194;43.408;24.626;2022-11-18T15:01:45;16.80;93.00
8313;DHT22;4194;43.408;24.626;2022-11-18T15:04:12;15.90;93.10
8313;DHT22;4194;43.408;24.626;2022-11-18T15:06:38;16.10;94.10
8313;DHT22;4194;43.408;24.626;2022-11-18T15:09:05;16.20;95.00
8313;DHT22;4194;43.408;24.626;2022-11-18T15:11:33;17.30;96.00
8313;DHT22;4194;43.408;24.626;2022-11-18T15:13:59;16.30;96.30
8313;DHT22;4194;43.408;24.626;2022-11-18T15:16:29;15.80;96.60
8313;DHT22;4194;43.408;24.626;2022-11-18T15:18:57;16.10;98.20
8313;DHT22;4194;43.408;24.626;2022-11-18T15:21:24;17.00;99.20
8313;DHT22;4194;43.408;24.626;2022-11-18T15:23:50;16.90;99.90
8313;DHT22;4194;43.408;24.626;2022-11-18T15:28:42;16.10;99.90
8313;DHT22;4194;43.408;24.626;2022-11-18T15:31:07;16.70;99.90
8313;DHT22;4194;43.408;24.626;2022-11-18T15:33:33;15.90;99.90
8313;DHT22;4194;43.408;24.626;2022-11-18T15:35:59;15.90;99.90
8313;DHT22;4194;43.408;24.626;2022-11-18T15:38:25;15.90;99.90
8313;DHT22;4194;43.408;24.626;2022-11-18T15:40:51;16.00;99.90
8313;DHT22;4194;43.408;24.626;2022-11-18T15:45:43;17.00;99.90
8313;DHT22;4194;43.408;24.626;2022-11-18T15:48:09;15.60;99.90
8313;DHT22;4194;43.408;24.626;2022-11-18T15:50:34;16.00;99.90
8313;DHT22;4194;43.408;24.626;2022-11-18T15:53:00;15.70;99.90
8313;DHT22;4194;43.408;24.626;2022-11-18T15:55:26;16.00;99.90
8313;DHT22;4194;43.408;24.626;2022-11-18T15:57:51;16.00;99.90
8313;DHT22;4194;43.408;24.626;2022-11-18T16:00:17;16.10;99.90
8313;DHT22;4194;43.408;24.626;2022-11-18T16:02:43;16.00;99.90
8313;DHT22;4194;43.408;24.626;2022-11-18T16:05:09;17.00;99.90
8313;DHT22;4194;43.408;24.626;2022-11-18T16:07:34;17.20;99.90
8313;DHT22;4194;43.408;24.626;2022-11-18T16:12:45;15.30;99.90
8313;DHT22;4194;43.408;24.626;2022-11-18T16:15:11;15.90;99.90
8313;DHT22;4194;43.408;24.626;2022-11-18T16:17:56;16.80;99.90
8313;DHT22;4194;43.408;24.626;2022-11-18T16:20:23;16.00;99.90
8313;DHT22;4194;43.408;24.626;2022-11-18T16:22:49;16.20;99.90
8313;DHT22;4194;43.408;24.626;2022-11-18T16:25:16;17.10;99.90
8313;DHT22;4194;43.408;24.626;2022-11-18T16:30:09;16.30;99.90
8313;DHT22;4194;43.408;24.626;2022-11-18T16:32:54;15.70;99.90
8313;DHT22;4194;43.408;24.626;2022-11-18T16:35:20;15.80;99.90
8313;DHT22;4194;43.408;24.626;2022-11-18T16:37:46;15.40;99.90
8313;DHT22;4194;43.408;24.626;2022-11-18T16:40:11;15.60;99.90
8313;DHT22;4194;43.408;24.626;2022-11-18T16:42:37;15.70;99.90
8313;DHT22;4194;43.408;24.626;2022-11-18T16:45:03;15.30;99.90
8313;DHT22;4194;43.408;24.626;2022-11-18T16:47:29;15.30;99.90
8313;DHT22;4194;43.408;24.626;2022-11-18T16:49:55;15.30;99.90
8313;DHT22;4194;43.408;24.626;2022-11-18T16:52:20;15.20;99.90
8313;DHT22;4194;43.408;24.626;2022-11-18T16:54:46;15.10;99.90
8313;DHT22;4194;43.408;24.626;2022-11-18T16:57:12;15.70;99.90
8313;DHT22;4194;43.408;24.626;2022-11-18T17:02:04;15.90;99.90
8313;DHT22;4194;43.408;24.626;2022-11-18T17:04:30;14.50;99.90
8313;DHT22;4194;43.408;24.626;2022-11-18T17:06:56;15.00;99.90
8313;DHT22;4194;43.408;24.626;2022-11-18T17:09:24;14.60;99.90
8313;DHT22;4194;43.408;24.626;2022-11-18T17:11:52;14.50;99.90
8313;DHT22;4194;43.408;24.626;2022-11-18T17:14:18;14.90;99.90
8313;DHT22;4194;43.408;24.626;2022-11-18T17:16:44;15.30;99.90
8313;DHT22;4194;43.408;24.626;2022-11-18T17:19:15;15.20;99.90
8313;DHT22;4194;43.408;24.626;2022-11-18T17:21:42;14.80;99.90
8313;DHT22;4194;43.408;24.626;2022-11-18T17:24:08;15.00;99.90
8313;DHT22;4194;43.408;24.626;2022-11-18T17:26:34;15.30;99.90
8313;DHT22;4194;43.408;24.626;2022-11-18T17:29:00;15.70;99.90
8313;DHT22;4194;43.408;24.626;2022-11-18T17:31:26;15.40;99.90
8313;DHT22;4194;43.408;24.626;2022-11-18T17:33:54;14.60;99.90
8313;DHT22;4194;43.408;24.626;2022-11-18T17:36:22;15.10;99.90
8313;DHT22;4194;43.408;24.626;2022-11-18T17:38:49;14.90;99.90
8313;DHT22;4194;43.408;24.626;2022-11-18T17:41:18;15.10;99.90
8313;DHT22;4194;43.408;24.626;2022-11-18T17:44:04;15.70;99.90
8313;DHT22;4194;43.408;24.626;2022-11-18T17:46:30;15.60;99.90
8313;DHT22;4194;43.408;24.626;2022-11-18T17:48:57;15.40;99.90
8313;DHT22;4194;43.408;24.626;2022-11-18T17:51:25;15.50;99.90
8313;DHT22;4194;43.408;24.626;2022-11-18T17:53:51;14.70;99.90
8313;DHT22;4194;43.408;24.626;2022-11-18T17:56:17;15.50;99.90
8313;DHT22;4194;43.408;24.626;2022-11-18T17:58:43;13.70;99.90
8313;DHT22;4194;43.408;24.626;2022-11-18T18:01:11;15.30;99.90
8313;DHT22;4194;43.408;24.626;2022-11-18T18:03:37;14.80;99.90
8313;DHT22;4194;43.408;24.626;2022-11-18T18:06:04;14.70;99.90
8313;DHT22;4194;43.408;24.626;2022-11-18T18:08:31;14.60;99.90
8313;DHT22;4194;43.408;24.626;2022-11-18T18:11:05;14.60;99.90
8313;DHT22;4194;43.408;24.626;2022-11-18T18:13:31;15.50;99.90
8313;DHT22;4194;43.408;24.626;2022-11-18T18:16:16;15.20;99.90
8313;DHT22;4194;43.408;24.626;2022-11-18T18:18:42;14.00;99.90
8313;DHT22;4194;43.408;24.626;2022-11-18T18:21:08;14.00;99.90
8313;DHT22;4194;43.408;24.626;2022-11-18T18:23:34;14.60;99.90
8313;DHT22;4194;43.408;24.626;2022-11-18T18:26:04;15.40;99.90
8313;DHT22;4194;43.408;24.626;2022-11-18T18:28:31;14.10;99.90
8313;DHT22;4194;43.408;24.626;2022-11-18T18:30:58;14.20;99.90
8313;DHT22;4194;43.408;24.626;2022-11-18T18:33:24;14.10;99.90
8313;DHT22;4194;43.408;24.626;2022-11-18T18:35:54;13.90;99.90
8313;DHT22;4194;43.408;24.626;2022-11-18T18:38:20;13.90;99.90
8313;DHT22;4194;43.408;24.626;2022-11-18T18:40:45;13.20;99.90
8313;DHT22;4194;43.408;24.626;2022-11-18T18:43:11;13.70;99.90
8313;DHT22;4194;43.408;24.626;2022-11-18T18:45:37;13.60;99.90
8313;DHT22;4194;43.408;24.626;2022-11-18T18:48:21;14.50;99.90
8313;DHT22;4194;43.408;24.626;2022-11-18T18:50:47;13.80;99.90
8313;DHT22;4194;43.408;24.626;2022-11-18T18:53:14;13.80;99.90
8313;DHT22;4194;43.408;24.626;2022-11-18T18:55:40;13.60;99.90
8313;DHT22;4194;43.408;24.626;2022-11-18T18:58:06;14.00;99.90
8313;DHT22;4194;43.408;24.626;2022-11-18T19:00:32;13.50;99.90
8313;DHT22;4194;43.408;24.626;2022-11-18T19:02:57;13.30;99.90
8313;DHT22;4194;43.408;24.626;2022-11-18T19:05:23;13.60;99.90
8313;DHT22;4194;43.408;24.626;2022-11-18T19:07:49;13.10;99.90